sensor_id;sensor_type;location;lat;lon;timestamp;pressure;altitude;pressure_sealevel;temperature;humidity
65754;BME280;69207;47.502;18.940;2023-05-12T00:00:50;98094.28;;;10.32;94.57
65754;BME280;69207;47.502;18.940;2023-05-12T00:01:53;98093.44;;;10.39;94.58
65754;BME280;69207;47.502;18.940;2023-05-12T00:02:56;98102.94;;;10.48;93.89
65754;BME280;69207;47.502;18.940;2023-05-12T00:03:59;98092.66;;;10.48;93.37
65754;BME280;69207;47.502;18.940;2023-05-12T00:05:03;98105.84;;;10.40;93.83
65754;BME280;69207;47.502;18.940;2023-05-12T00:06:06;98092.25;;;10.32;94.28
65754;BME280;69207;47.502;18.940;2023-05-12T00:07:09;98100.09;;;10.26;94.90
65754;BME280;69207;47.502;18.940;2023-05-12T00:08:12;98087.53;;;10.33;95.06
65754;BME280;69207;47.502;18.940;2023-05-12T00:09:15;98093.00;;;10.33;95.21
65754;BME280;69207;47.502;18.940;2023-05-12T00:10:18;98088.78;;;10.42;94.42
65754;BME280;69207;47.502;18.940;2023-05-12T00:11:21;98083.91;;;10.30;94.58
65754;BME280;69207;47.502;18.940;2023-05-12T00:12:24;98091.84;;;10.36;94.67
65754;BME280;69207;47.502;18.940;2023-05-12T00:13:26;98092.12;;;10.30;94.77
65754;BME280;69207;47.502;18.940;2023-05-12T00:14:30;98091.84;;;10.36;94.92
65754;BME280;69207;47.502;18.940;2023-05-12T00:15:33;98088.97;;;10.34;94.66
65754;BME280;69207;47.502;18.940;2023-05-12T00:16:35;98082.16;;;10.25;94.99
65754;BME280;69207;47.502;18.940;2023-05-12T00:17:38;98084.31;;;10.27;95.48
65754;BME280;69207;47.502;18.940;2023-05-12T00:18:41;98091.41;;;10.40;95.00
65754;BME280;69207;47.502;18.940;2023-05-12T00:19:44;98090.69;;;10.39;94.26
65754;BME280;69207;47.502;18.940;2023-05-12T00:20:48;98088.09;;;10.31;94.63
65754;BME280;69207;47.502;18.940;2023-05-12T00:21:51;98087.06;;;10.37;94.82
65754;BME280;69207;47.502;18.940;2023-05-12T00:22:54;98087.78;;;10.37;94.86
65754;BME280;69207;47.502;18.940;2023-05-12T00:23:57;98085.50;;;10.34;94.79
65754;BME280;69207;47.502;18.940;2023-05-12T00:24:59;98080.00;;;10.34;94.82
65754;BME280;69207;47.502;18.940;2023-05-12T00:26:02;98086.22;;;10.34;94.81
65754;BME280;69207;47.502;18.940;2023-05-12T00:27:05;98079.72;;;10.29;95.08
65754;BME280;69207;47.502;18.940;2023-05-12T00:28:08;98084.62;;;10.31;95.12
65754;BME280;69207;47.502;18.940;2023-05-12T00:29:11;98088.97;;;10.24;95.44
65754;BME280;69207;47.502;18.940;2023-05-12T00:30:14;98082.47;;;10.29;95.67
65754;BME280;69207;47.502;18.940;2023-05-12T00:31:17;98082.75;;;10.34;95.50
65754;BME280;69207;47.502;18.940;2023-05-12T00:32:20;98078.41;;;10.30;95.53
65754;BME280;69207;47.502;18.940;2023-05-12T00:33:22;98086.19;;;10.44;95.44
65754;BME280;69207;47.502;18.940;2023-05-12T00:34:28;98086.22;;;10.34;95.36
65754;BME280;69207;47.502;18.940;2023-05-12T00:35:31;98079.59;;;10.27;95.97
65754;BME280;69207;47.502;18.940;2023-05-12T00:36:33;98082.75;;;10.34;96.27
65754;BME280;69207;47.502;18.940;2023-05-12T00:37:36;98078.22;;;10.38;95.88
65754;BME280;69207;47.502;18.940;2023-05-12T00:38:39;98085.34;;;10.31;96.00
65754;BME280;69207;47.502;18.940;2023-05-12T00:39:42;98073.31;;;10.37;96.38
65754;BME280;69207;47.502;18.940;2023-05-12T00:40:45;98080.13;;;10.36;95.90
65754;BME280;69207;47.502;18.940;2023-05-12T00:41:54;98081.13;;;10.40;95.59
65754;BME280;69207;47.502;18.940;2023-05-12T00:42:58;98074.50;;;10.34;95.94
65754;BME280;69207;47.502;18.940;2023-05-12T00:44:01;98074.22;;;10.29;96.46
65754;BME280;69207;47.502;18.940;2023-05-12T00:45:04;98072.19;;;10.30;96.79
65754;BME280;69207;47.502;18.940;2023-05-12T00:46:07;98071.19;;;10.25;96.98
65754;BME280;69207;47.502;18.940;2023-05-12T00:47:10;98075.66;;;10.30;97.18
65754;BME280;69207;47.502;18.940;2023-05-12T00:48:13;98075.53;;;10.28;97.10
65754;BME280;69207;47.502;18.940;2023-05-12T00:49:17;98083.59;;;10.26;97.24
65754;BME280;69207;47.502;18.940;2023-05-12T00:50:20;98077.97;;;10.34;97.12
65754;BME280;69207;47.502;18.940;2023-05-12T00:51:25;98086.50;;;10.28;96.83
65754;BME280;69207;47.502;18.940;2023-05-12T00:52:28;98071.31;;;10.37;96.10
65754;BME280;69207;47.502;18.940;2023-05-12T00:53:31;98069.84;;;10.46;95.69
65754;BME280;69207;47.502;18.940;2023-05-12T00:54:49;98072.47;;;10.44;95.61
65754;BME280;69207;47.502;18.940;2023-05-12T00:55:53;98072.75;;;10.38;95.67
65754;BME280;69207;47.502;18.940;2023-05-12T00:56:57;98064.97;;;10.35;95.93
65754;BME280;69207;47.502;18.940;2023-05-12T00:57:59;98072.47;;;10.34;96.22
65754;BME280;69207;47.502;18.940;2023-05-12T00:59:02;98067.13;;;10.36;96.05
65754;BME280;69207;47.502;18.940;2023-05-12T01:00:05;98069.72;;;10.44;95.96
65754;BME280;69207;47.502;18.940;2023-05-12T01:01:08;98069.88;;;10.36;95.75
65754;BME280;69207;47.502;18.940;2023-05-12T01:02:11;98077.25;;;10.34;96.24
65754;BME280;69207;47.502;18.940;2023-05-12T01:03:15;98072.91;;;10.30;96.55
65754;BME280;69207;47.502;18.940;2023-05-12T01:04:19;98071.72;;;10.43;96.42
65754;BME280;69207;47.502;18.940;2023-05-12T01:05:22;98076.38;;;10.41;95.72
65754;BME280;69207;47.502;18.940;2023-05-12T01:06:33;98073.63;;;10.31;96.18
65754;BME280;69207;47.502;18.940;2023-05-12T01:07:38;98081.16;;;10.30;96.41
65754;BME280;69207;47.502;18.940;2023-05-12T01:08:42;98076.09;;;10.27;96.67
65754;BME280;69207;47.502;18.940;2023-05-12T01:09:45;98067.13;;;10.26;96.82
65754;BME280;69207;47.502;18.940;2023-05-12T01:10:48;98075.53;;;10.28;96.88
65754;BME280;69207;47.502;18.940;2023-05-12T01:11:51;98073.94;;;10.25;97.08
65754;BME280;69207;47.502;18.940;2023-05-12T01:12:53;98078.53;;;10.32;96.90
65754;BME280;69207;47.502;18.940;2023-05-12T01:13:56;98079.59;;;10.27;97.07
65754;BME280;69207;47.502;18.940;2023-05-12T01:14:59;98076.09;;;10.27;97.28
65754;BME280;69207;47.502;18.940;2023-05-12T01:16:03;98072.63;;;10.26;97.50
65754;BME280;69207;47.502;18.940;2023-05-12T01:17:11;98069.00;;;10.34;97.39
65754;BME280;69207;47.502;18.940;2023-05-12T01:18:18;98075.34;;;10.36;97.27
65754;BME280;69207;47.502;18.940;2023-05-12T01:20:45;98080.72;;;10.24;97.81
65754;BME280;69207;47.502;18.940;2023-05-12T01:21:49;98075.94;;;10.35;97.49
65754;BME280;69207;47.502;18.940;2023-05-12T01:22:53;98075.06;;;10.32;97.64
65754;BME280;69207;47.502;18.940;2023-05-12T01:24:04;98074.81;;;10.28;98.02
65754;BME280;69207;47.502;18.940;2023-05-12T01:25:10;98079.84;;;10.31;98.47
65754;BME280;69207;47.502;18.940;2023-05-12T01:26:16;98070.88;;;10.41;97.95
65754;BME280;69207;47.502;18.940;2023-05-12T01:27:20;98077.81;;;10.42;97.58
65754;BME280;69207;47.502;18.940;2023-05-12T01:28:23;98078.53;;;10.42;97.49
65754;BME280;69207;47.502;18.940;2023-05-12T01:29:27;98075.94;;;10.44;98.03
65754;BME280;69207;47.502;18.940;2023-05-12T01:30:30;98073.91;;;10.45;97.39
65754;BME280;69207;47.502;18.940;2023-05-12T01:31:33;98077.25;;;10.34;97.90
65754;BME280;69207;47.502;18.940;2023-05-12T01:32:37;98072.03;;;10.38;98.10
65754;BME280;69207;47.502;18.940;2023-05-12T01:33:41;98078.53;;;10.32;98.42
65754;BME280;69207;47.502;18.940;2023-05-12T01:34:45;98078.41;;;10.30;98.52
65754;BME280;69207;47.502;18.940;2023-05-12T01:35:48;98069.75;;;10.24;98.95
65754;BME280;69207;47.502;18.940;2023-05-12T01:36:50;98072.34;;;10.22;99.45
65754;BME280;69207;47.502;18.940;2023-05-12T01:37:53;98084.03;;;10.23;99.66
65754;BME280;69207;47.502;18.940;2023-05-12T01:38:56;98081.16;;;10.30;99.39
65754;BME280;69207;47.502;18.940;2023-05-12T01:39:59;98082.88;;;10.26;99.25
65754;BME280;69207;47.502;18.940;2023-05-12T01:41:01;98075.25;;;10.24;99.55
65754;BME280;69207;47.502;18.940;2023-05-12T01:42:04;98085.06;;;10.27;99.64
65754;BME280;69207;47.502;18.940;2023-05-12T01:43:07;98076.09;;;10.27;99.61
65754;BME280;69207;47.502;18.940;2023-05-12T01:44:10;98080.00;;;10.24;99.63
65754;BME280;69207;47.502;18.940;2023-05-12T01:45:13;98074.94;;;10.30;99.61
65754;BME280;69207;47.502;18.940;2023-05-12T01:46:15;98077.56;;;10.28;99.51
65754;BME280;69207;47.502;18.940;2023-05-12T01:47:18;98071.03;;;10.33;99.44
65754;BME280;69207;47.502;18.940;2023-05-12T01:48:23;98076.06;;;10.37;98.77
65754;BME280;69207;47.502;18.940;2023-05-12T01:49:25;98076.66;;;10.45;98.44
65754;BME280;69207;47.502;18.940;2023-05-12T01:50:28;98084.00;;;10.42;98.11
65754;BME280;69207;47.502;18.940;2023-05-12T01:51:31;98078.81;;;10.37;98.43
65754;BME280;69207;47.502;18.940;2023-05-12T01:52:34;98089.69;;;10.35;98.71
65754;BME280;69207;47.502;18.940;2023-05-12T01:53:36;98077.38;;;10.36;98.90
65754;BME280;69207;47.502;18.940;2023-05-12T01:54:39;98080.41;;;10.40;98.87
65754;BME280;69207;47.502;18.940;2023-05-12T01:55:42;98083.59;;;10.36;99.09
65754;BME280;69207;47.502;18.940;2023-05-12T01:56:45;98085.16;;;10.49;98.48
65754;BME280;69207;47.502;18.940;2023-05-12T01:57:47;98093.84;;;10.45;98.21
65754;BME280;69207;47.502;18.940;2023-05-12T01:58:50;98084.72;;;10.43;98.49
65754;BME280;69207;47.502;18.940;2023-05-12T01:59:53;98092.53;;;10.56;98.11
65754;BME280;69207;47.502;18.940;2023-05-12T02:00:56;98091.66;;;10.53;97.74
65754;BME280;69207;47.502;18.940;2023-05-12T02:01:58;98094.69;;;10.48;98.15
65754;BME280;69207;47.502;18.940;2023-05-12T02:03:01;98092.66;;;10.58;97.93
65754;BME280;69207;47.502;18.940;2023-05-12T02:04:04;98097.59;;;10.50;97.97
65754;BME280;69207;47.502;18.940;2023-05-12T02:05:10;98091.69;;;10.44;98.41
65754;BME280;69207;47.502;18.940;2023-05-12T02:06:13;98096.13;;;10.49;98.60
65754;BME280;69207;47.502;18.940;2023-05-12T02:07:16;98096.00;;;10.47;98.55
65754;BME280;69207;47.502;18.940;2023-05-12T02:08:19;98092.09;;;10.50;98.72
65754;BME280;69207;47.502;18.940;2023-05-12T02:09:21;98096.13;;;10.49;98.65
65754;BME280;69207;47.502;18.940;2023-05-12T02:10:24;98096.59;;;10.45;98.92
65754;BME280;69207;47.502;18.940;2023-05-12T02:11:27;98092.06;;;10.60;98.66
65754;BME280;69207;47.502;18.940;2023-05-12T02:12:30;98095.25;;;10.56;98.06
65754;BME280;69207;47.502;18.940;2023-05-12T02:13:33;98097.13;;;10.53;98.39
65754;BME280;69207;47.502;18.940;2023-05-12T02:14:36;98089.34;;;10.50;98.47
65754;BME280;69207;47.502;18.940;2023-05-12T02:15:38;98098.88;;;10.49;98.46
65754;BME280;69207;47.502;18.940;2023-05-12T02:16:41;98090.94;;;10.43;98.90
65754;BME280;69207;47.502;18.940;2023-05-12T02:17:44;98091.22;;;10.47;98.92
65754;BME280;69207;47.502;18.940;2023-05-12T02:18:47;98090.06;;;10.50;98.76
65754;BME280;69207;47.502;18.940;2023-05-12T02:19:50;98093.38;;;10.49;98.71
65754;BME280;69207;47.502;18.940;2023-05-12T02:20:53;98092.41;;;10.44;98.91
65754;BME280;69207;47.502;18.940;2023-05-12T02:21:56;98090.22;;;10.43;99.22
65754;BME280;69207;47.502;18.940;2023-05-12T02:22:59;98091.41;;;10.40;99.34
65754;BME280;69207;47.502;18.940;2023-05-12T02:24:03;98096.00;;;10.47;99.53
65754;BME280;69207;47.502;18.940;2023-05-12T02:25:06;98096.00;;;10.47;99.06
65754;BME280;69207;47.502;18.940;2023-05-12T02:26:09;98099.94;;;10.44;99.20
65754;BME280;69207;47.502;18.940;2023-05-12T02:27:12;98104.69;;;10.43;99.36
65754;BME280;69207;47.502;18.940;2023-05-12T02:28:15;98106.97;;;10.56;99.03
65754;BME280;69207;47.502;18.940;2023-05-12T02:29:18;98117.38;;;10.58;97.92
65754;BME280;69207;47.502;18.940;2023-05-12T02:30:21;98106.28;;;10.46;98.37
65754;BME280;69207;47.502;18.940;2023-05-12T02:31:24;98099.19;;;10.43;98.73
65754;BME280;69207;47.502;18.940;2023-05-12T02:32:27;98096.31;;;10.41;99.02
65754;BME280;69207;47.502;18.940;2023-05-12T02:33:30;98103.94;;;10.43;99.35
65754;BME280;69207;47.502;18.940;2023-05-12T02:34:32;98101.19;;;10.52;98.70
65754;BME280;69207;47.502;18.940;2023-05-12T02:35:35;98105.38;;;10.53;97.95
65754;BME280;69207;47.502;18.940;2023-05-12T02:36:38;98102.50;;;10.51;97.98
65754;BME280;69207;47.502;18.940;2023-05-12T02:37:41;98109.16;;;10.48;98.17
65754;BME280;69207;47.502;18.940;2023-05-12T02:38:43;98105.41;;;10.44;98.55
65754;BME280;69207;47.502;18.940;2023-05-12T02:39:46;98106.69;;;10.43;98.76
65754;BME280;69207;47.502;18.940;2023-05-12T02:40:49;98109.44;;;10.43;98.79
65754;BME280;69207;47.502;18.940;2023-05-12T02:41:52;98097.75;;;10.42;99.04
65754;BME280;69207;47.502;18.940;2023-05-12T02:42:55;98097.19;;;10.44;98.94
65754;BME280;69207;47.502;18.940;2023-05-12T02:43:58;98100.78;;;10.37;99.25
65754;BME280;69207;47.502;18.940;2023-05-12T02:45:00;98100.78;;;10.46;99.31
65754;BME280;69207;47.502;18.940;2023-05-12T02:46:04;98097.00;;;10.51;99.01
65754;BME280;69207;47.502;18.940;2023-05-12T02:47:07;98104.38;;;10.49;98.75
65754;BME280;69207;47.502;18.940;2023-05-12T02:48:10;98102.06;;;10.55;98.60
65754;BME280;69207;47.502;18.940;2023-05-12T02:49:13;98100.06;;;10.46;98.62
65754;BME280;69207;47.502;18.940;2023-05-12T02:50:16;98098.16;;;10.48;98.83
65754;BME280;69207;47.502;18.940;2023-05-12T02:51:19;98098.91;;;10.39;99.06
65754;BME280;69207;47.502;18.940;2023-05-12T02:52:21;98105.44;;;10.34;99.63
65754;BME280;69207;47.502;18.940;2023-05-12T02:53:24;98087.06;;;10.37;99.74
65754;BME280;69207;47.502;18.940;2023-05-12T02:54:28;98091.12;;;10.36;99.77
65754;BME280;69207;47.502;18.940;2023-05-12T02:55:31;98108.59;;;10.40;99.58
65754;BME280;69207;47.502;18.940;2023-05-12T02:56:34;98101.06;;;10.41;99.41
65754;BME280;69207;47.502;18.940;2023-05-12T02:57:37;98095.28;;;10.37;99.42
65754;BME280;69207;47.502;18.940;2023-05-12T02:58:40;98099.78;;;10.32;99.68
65754;BME280;69207;47.502;18.940;2023-05-12T02:59:43;98104.84;;;10.45;99.24
65754;BME280;69207;47.502;18.940;2023-05-12T03:00:46;98103.53;;;10.46;98.77
65754;BME280;69207;47.502;18.940;2023-05-12T03:01:58;98098.88;;;10.49;98.58
65754;BME280;69207;47.502;18.940;2023-05-12T03:03:01;98102.69;;;10.44;98.84
65754;BME280;69207;47.502;18.940;2023-05-12T03:04:04;98107.28;;;10.41;99.18
65754;BME280;69207;47.502;18.940;2023-05-12T03:05:07;98112.06;;;10.41;99.58
65754;BME280;69207;47.502;18.940;2023-05-12T03:06:10;98113.66;;;10.44;99.53
65754;BME280;69207;47.502;18.940;2023-05-12T03:07:13;98118.09;;;10.49;99.28
65754;BME280;69207;47.502;18.940;2023-05-12T03:08:16;98107.72;;;10.47;99.39
65754;BME280;69207;47.502;18.940;2023-05-12T03:09:19;98108.72;;;10.42;99.42
65754;BME280;69207;47.502;18.940;2023-05-12T03:10:22;98117.84;;;10.35;100.00
65754;BME280;69207;47.502;18.940;2023-05-12T03:11:25;98107.41;;;10.43;100.00
65754;BME280;69207;47.502;18.940;2023-05-12T03:12:28;98102.81;;;10.36;100.00
65754;BME280;69207;47.502;18.940;2023-05-12T03:13:31;98112.50;;;10.37;100.00
65754;BME280;69207;47.502;18.940;2023-05-12T03:14:34;98108.28;;;10.46;100.00
65754;BME280;69207;47.502;18.940;2023-05-12T03:15:37;98106.28;;;10.46;99.99
65754;BME280;69207;47.502;18.940;2023-05-12T03:16:40;98105.69;;;10.48;99.75
65754;BME280;69207;47.502;18.940;2023-05-12T03:17:43;98104.53;;;10.41;99.96
65754;BME280;69207;47.502;18.940;2023-05-12T03:18:46;98099.34;;;10.36;100.00
65754;BME280;69207;47.502;18.940;2023-05-12T03:19:49;98105.13;;;10.40;100.00
65754;BME280;69207;47.502;18.940;2023-05-12T03:20:51;98099.22;;;10.34;100.00
65754;BME280;69207;47.502;18.940;2023-05-12T03:21:54;98098.94;;;10.29;100.00
65754;BME280;69207;47.502;18.940;2023-05-12T03:22:57;98100.38;;;10.30;100.00
65754;BME280;69207;47.502;18.940;2023-05-12T03:24:00;98098.62;;;10.45;100.00
65754;BME280;69207;47.502;18.940;2023-05-12T03:25:03;98099.62;;;10.49;99.31
65754;BME280;69207;47.502;18.940;2023-05-12T03:26:06;98104.84;;;10.45;98.84
65754;BME280;69207;47.502;18.940;2023-05-12T03:27:09;98104.13;;;10.35;99.31
65754;BME280;69207;47.502;18.940;2023-05-12T03:28:12;98102.69;;;10.44;99.61
65754;BME280;69207;47.502;18.940;2023-05-12T03:29:14;98100.06;;;10.46;99.03
65754;BME280;69207;47.502;18.940;2023-05-12T03:30:17;98108.44;;;10.38;99.06
65754;BME280;69207;47.502;18.940;2023-05-12T03:31:20;98105.69;;;10.38;99.28
65754;BME280;69207;47.502;18.940;2023-05-12T03:32:23;98103.94;;;10.43;99.24
65754;BME280;69207;47.502;18.940;2023-05-12T03:33:26;98108.03;;;10.32;99.57
65754;BME280;69207;47.502;18.940;2023-05-12T03:34:29;98103.09;;;10.40;99.53
65754;BME280;69207;47.502;18.940;2023-05-12T03:35:33;98108.75;;;10.32;99.71
65754;BME280;69207;47.502;18.940;2023-05-12T03:36:35;98099.78;;;10.32;100.00
65754;BME280;69207;47.502;18.940;2023-05-12T03:37:38;98108.03;;;10.32;100.00
65754;BME280;69207;47.502;18.940;2023-05-12T03:38:41;98109.31;;;10.31;100.00
65754;BME280;69207;47.502;18.940;2023-05-12T03:39:44;98107.75;;;10.28;100.00
65754;BME280;69207;47.502;18.940;2023-05-12T03:40:48;98112.06;;;10.21;100.00
65754;BME280;69207;47.502;18.940;2023-05-12T03:41:54;98107.03;;;10.27;100.00
65754;BME280;69207;47.502;18.940;2023-05-12T03:42:56;98114.53;;;10.27;100.00
65754;BME280;69207;47.502;18.940;2023-05-12T03:43:59;98107.00;;;10.37;100.00
65754;BME280;69207;47.502;18.940;2023-05-12T03:45:02;98107.59;;;10.36;100.00
65754;BME280;69207;47.502;18.940;2023-05-12T03:46:06;98109.19;;;10.39;100.00
65754;BME280;69207;47.502;18.940;2023-05-12T03:47:09;98108.72;;;10.42;100.00
65754;BME280;69207;47.502;18.940;2023-05-12T03:48:12;98112.34;;;10.45;99.90
65754;BME280;69207;47.502;18.940;2023-05-12T03:49:15;98111.66;;;10.35;100.00
65754;BME280;69207;47.502;18.940;2023-05-12T03:50:17;98115.41;;;10.29;100.00
65754;BME280;69207;47.502;18.940;2023-05-12T03:51:21;98108.47;;;10.28;100.00
65754;BME280;69207;47.502;18.940;2023-05-12T03:52:23;98121.31;;;10.26;100.00
65754;BME280;69207;47.502;18.940;2023-05-12T03:53:26;98115.53;;;10.31;100.00
65754;BME280;69207;47.502;18.940;2023-05-12T03:54:29;98118.44;;;10.24;100.00
65754;BME280;69207;47.502;18.940;2023-05-12T03:55:32;98119.16;;;10.24;100.00
65754;BME280;69207;47.502;18.940;2023-05-12T03:56:35;98111.22;;;10.28;100.00
65754;BME280;69207;47.502;18.940;2023-05-12T03:57:38;98119.16;;;10.24;100.00
65754;BME280;69207;47.502;18.940;2023-05-12T03:58:42;98114.22;;;10.32;100.00
65754;BME280;69207;47.502;18.940;2023-05-12T03:59:44;98113.25;;;10.28;100.00
65754;BME280;69207;47.502;18.940;2023-05-12T04:00:47;98116.97;;;10.42;100.00
65754;BME280;69207;47.502;18.940;2023-05-12T04:01:51;98111.94;;;10.39;100.00
65754;BME280;69207;47.502;18.940;2023-05-12T04:02:54;98115.81;;;10.45;100.00
65754;BME280;69207;47.502;18.940;2023-05-12T04:03:57;98121.03;;;10.41;100.00
65754;BME280;69207;47.502;18.940;2023-05-12T04:05:00;98116.25;;;10.42;100.00
65754;BME280;69207;47.502;18.940;2023-05-12T04:06:03;98116.53;;;10.36;100.00
65754;BME280;69207;47.502;18.940;2023-05-12T04:07:06;98121.31;;;10.36;100.00
65754;BME280;69207;47.502;18.940;2023-05-12T04:08:09;98129.97;;;10.42;100.00
65754;BME280;69207;47.502;18.940;2023-05-12T04:09:12;98125.50;;;10.37;100.00
65754;BME280;69207;47.502;18.940;2023-05-12T04:10:15;98120.59;;;10.35;100.00
65754;BME280;69207;47.502;18.940;2023-05-12T04:11:17;98126.94;;;10.47;100.00
65754;BME280;69207;47.502;18.940;2023-05-12T04:12:20;98122.88;;;10.48;100.00
65754;BME280;69207;47.502;18.940;2023-05-12T04:13:24;98129.25;;;10.41;100.00
65754;BME280;69207;47.502;18.940;2023-05-12T04:14:27;98124.34;;;10.40;100.00
65754;BME280;69207;47.502;18.940;2023-05-12T04:15:44;98131.00;;;10.46;100.00
65754;BME280;69207;47.502;18.940;2023-05-12T04:16:47;98131.41;;;10.43;100.00
65754;BME280;69207;47.502;18.940;2023-05-12T04:17:49;98131.72;;;10.47;100.00
65754;BME280;69207;47.502;18.940;2023-05-12T04:18:52;98126.19;;;10.56;100.00
65754;BME280;69207;47.502;18.940;2023-05-12T04:19:55;98128.66;;;10.52;100.00
65754;BME280;69207;47.502;18.940;2023-05-12T04:20:58;98125.91;;;10.52;100.00
65754;BME280;69207;47.502;18.940;2023-05-12T04:22:01;98127.81;;;10.50;100.00
65754;BME280;69207;47.502;18.940;2023-05-12T04:23:04;98127.53;;;10.46;100.00
65754;BME280;69207;47.502;18.940;2023-05-12T04:24:06;98130.41;;;10.48;100.00
65754;BME280;69207;47.502;18.940;2023-05-12T04:25:09;98132.13;;;10.53;100.00
65754;BME280;69207;47.502;18.940;2023-05-12T04:26:12;98132.13;;;10.53;100.00
65754;BME280;69207;47.502;18.940;2023-05-12T04:27:15;98135.44;;;10.61;100.00
65754;BME280;69207;47.502;18.940;2023-05-12T04:28:17;98132.41;;;10.57;100.00
65754;BME280;69207;47.502;18.940;2023-05-12T04:29:20;98131.69;;;10.56;100.00
65754;BME280;69207;47.502;18.940;2023-05-12T04:30:23;98139.34;;;10.58;100.00
65754;BME280;69207;47.502;18.940;2023-05-12T04:31:25;98141.50;;;10.60;100.00
65754;BME280;69207;47.502;18.940;2023-05-12T04:32:28;98133.13;;;10.67;100.00
65754;BME280;69207;47.502;18.940;2023-05-12T04:33:31;98133.25;;;10.69;100.00
65754;BME280;69207;47.502;18.940;2023-05-12T04:34:34;98134.56;;;10.68;99.75
65754;BME280;69207;47.502;18.940;2023-05-12T04:35:37;98137.59;;;10.72;98.73
65754;BME280;69207;47.502;18.940;2023-05-12T04:36:40;98132.41;;;10.67;98.76
65754;BME280;69207;47.502;18.940;2023-05-12T04:37:42;98136.28;;;10.64;98.92
65754;BME280;69207;47.502;18.940;2023-05-12T04:38:45;98133.13;;;10.57;99.50
65754;BME280;69207;47.502;18.940;2023-05-12T04:39:48;98136.78;;;10.50;100.00
65754;BME280;69207;47.502;18.940;2023-05-12T04:40:51;98130.09;;;10.63;100.00
65754;BME280;69207;47.502;18.940;2023-05-12T04:41:53;98131.97;;;10.61;99.69
65754;BME280;69207;47.502;18.940;2023-05-12T04:42:56;98131.81;;;10.58;99.71
65754;BME280;69207;47.502;18.940;2023-05-12T04:43:59;98135.88;;;10.57;99.82
65754;BME280;69207;47.502;18.940;2023-05-12T04:45:02;98138.59;;;10.67;99.89
65754;BME280;69207;47.502;18.940;2023-05-12T04:46:05;98131.97;;;10.61;99.65
65754;BME280;69207;47.502;18.940;2023-05-12T04:47:08;98135.28;;;10.59;100.00
65754;BME280;69207;47.502;18.940;2023-05-12T04:48:10;98135.75;;;10.55;100.00
65754;BME280;69207;47.502;18.940;2023-05-12T04:49:13;98137.19;;;10.56;100.00
65754;BME280;69207;47.502;18.940;2023-05-12T04:50:16;98128.50;;;10.60;100.00
65754;BME280;69207;47.502;18.940;2023-05-12T04:51:18;98131.94;;;10.70;100.00
65754;BME280;69207;47.502;18.940;2023-05-12T04:52:21;98126.19;;;10.66;100.00
65754;BME280;69207;47.502;18.940;2023-05-12T04:53:26;98130.66;;;10.62;100.00
65754;BME280;69207;47.502;18.940;2023-05-12T04:54:29;98126.75;;;10.65;100.00
65754;BME280;69207;47.502;18.940;2023-05-12T04:55:32;98133.69;;;10.66;100.00
65754;BME280;69207;47.502;18.940;2023-05-12T04:56:35;98137.72;;;10.65;100.00
65754;BME280;69207;47.502;18.940;2023-05-12T04:57:38;98128.78;;;10.64;100.00
65754;BME280;69207;47.502;18.940;2023-05-12T04:58:42;98136.72;;;10.60;100.00
65754;BME280;69207;47.502;18.940;2023-05-12T04:59:45;98142.81;;;10.58;100.00
65754;BME280;69207;47.502;18.940;2023-05-12T05:00:48;98132.25;;;10.65;100.00
65754;BME280;69207;47.502;18.940;2023-05-12T05:01:51;98135.72;;;10.65;100.00
65754;BME280;69207;47.502;18.940;2023-05-12T05:02:53;98138.03;;;10.69;100.00
65754;BME280;69207;47.502;18.940;2023-05-12T05:03:56;98140.75;;;10.78;100.00
65754;BME280;69207;47.502;18.940;2023-05-12T05:04:59;98136.97;;;10.83;100.00
65754;BME280;69207;47.502;18.940;2023-05-12T05:06:02;98136.88;;;10.72;100.00
65754;BME280;69207;47.502;18.940;2023-05-12T05:07:05;98142.94;;;10.70;100.00
65754;BME280;69207;47.502;18.940;2023-05-12T05:08:08;98142.06;;;10.68;100.00
65754;BME280;69207;47.502;18.940;2023-05-12T05:09:11;98149.59;;;10.67;100.00
65754;BME280;69207;47.502;18.940;2023-05-12T05:10:14;98139.44;;;10.79;100.00
65754;BME280;69207;47.502;18.940;2023-05-12T05:11:16;98138.25;;;10.82;100.00
65754;BME280;69207;47.502;18.940;2023-05-12T05:12:19;98140.59;;;10.76;100.00
65754;BME280;69207;47.502;18.940;2023-05-12T05:13:22;98139.00;;;10.83;100.00
65754;BME280;69207;47.502;18.940;2023-05-12T05:14:25;98131.47;;;10.83;100.00
65754;BME280;69207;47.502;18.940;2023-05-12T05:15:28;98142.19;;;10.79;99.94
65754;BME280;69207;47.502;18.940;2023-05-12T05:16:31;98139.56;;;10.81;100.00
65754;BME280;69207;47.502;18.940;2023-05-12T05:17:33;98136.41;;;10.75;100.00
65754;BME280;69207;47.502;18.940;2023-05-12T05:18:36;98138.12;;;10.80;100.00
65754;BME280;69207;47.502;18.940;2023-05-12T05:19:39;98138.09;;;10.90;100.00
65754;BME280;69207;47.502;18.940;2023-05-12T05:20:59;98136.06;;;10.91;99.51
65754;BME280;69207;47.502;18.940;2023-05-12T05:22:02;98140.25;;;10.92;98.80
65754;BME280;69207;47.502;18.940;2023-05-12T05:23:06;98141.69;;;10.93;98.33
65754;BME280;69207;47.502;18.940;2023-05-12T05:24:09;98141.84;;;10.95;98.54
65754;BME280;69207;47.502;18.940;2023-05-12T05:25:11;98146.03;;;10.96;98.31
65754;BME280;69207;47.502;18.940;2023-05-12T05:26:15;98134.31;;;10.95;98.64
65754;BME280;69207;47.502;18.940;2023-05-12T05:27:18;98146.63;;;10.94;98.42
65754;BME280;69207;47.502;18.940;2023-05-12T05:28:21;98151.81;;;11.00;98.45
65754;BME280;69207;47.502;18.940;2023-05-12T05:29:24;98153.53;;;11.05;96.75
65754;BME280;69207;47.502;18.940;2023-05-12T05:30:28;98150.22;;;10.97;97.10
65754;BME280;69207;47.502;18.940;2023-05-12T05:31:30;98151.66;;;10.98;96.90